createdAt,value
2018-04-02T00:00:17.222Z,6.31
2018-04-02T00:01:17.208Z,6.32
2018-04-02T00:02:17.241Z,6.32
2018-04-02T00:03:17.196Z,6.31
2018-04-02T00:04:17.210Z,6.33
2018-04-02T00:05:17.241Z,6.32
2018-04-02T00:06:17.251Z,6.31
2018-04-02T00:07:17.228Z,6.34
2018-04-02T00:08:17.178Z,6.32
2018-04-02T00:09:17.178Z,6.32
2018-04-02T00:10:17.189Z,6.34
2018-04-02T00:11:17.185Z,6.31
2018-04-02T00:12:17.282Z,6.32
2018-04-02T00:13:17.187Z,6.34
2018-04-02T00:14:17.220Z,6.31
2018-04-02T00:15:17.198Z,6.32
2018-04-02T00:16:17.207Z,6.32
2018-04-02T00:17:17.221Z,6.31
2018-04-02T00:18:17.193Z,6.3
2018-04-02T00:19:17.182Z,6.3
2018-04-02T00:20:17.308Z,6.3
2018-04-02T00:21:17.276Z,6.3
2018-04-02T00:22:17.210Z,6.3
2018-04-02T00:23:17.214Z,6.3
2018-04-02T00:24:17.198Z,6.25
2018-04-02T00:25:17.202Z,6.25
2018-04-02T00:26:17.193Z,6.25
2018-04-02T00:27:17.189Z,6.23
2018-04-02T00:28:17.213Z,6.23
2018-04-02T00:29:17.194Z,6.21
2018-04-02T00:30:17.230Z,6.23
2018-04-02T00:31:17.207Z,6.24
2018-04-02T00:32:17.203Z,6.23
2018-04-02T00:33:17.211Z,6.23
2018-04-02T00:34:17.182Z,6.23
2018-04-02T00:35:17.220Z,6.24
2018-04-02T00:36:17.198Z,6.22
2018-04-02T00:37:17.219Z,6.24
2018-04-02T00:38:17.220Z,6.24
2018-04-02T00:39:17.210Z,6.27
2018-04-02T00:40:17.197Z,6.26
2018-04-02T00:41:17.216Z,6.29
2018-04-02T00:42:17.250Z,6.3
2018-04-02T00:43:17.200Z,6.31
2018-04-02T00:44:17.192Z,6.34
2018-04-02T00:45:17.199Z,6.34
2018-04-02T00:46:17.217Z,6.36
2018-04-02T00:47:17.212Z,6.37
2018-04-02T00:48:17.232Z,6.39
2018-04-02T00:49:17.237Z,6.38
2018-04-02T00:50:17.201Z,6.4
2018-04-02T00:51:17.301Z,6.4
2018-04-02T00:52:17.203Z,6.41
2018-04-02T00:53:17.242Z,6.41
2018-04-02T00:54:17.202Z,6.42
2018-04-02T00:55:17.203Z,6.44
2018-04-02T00:56:17.211Z,6.43
2018-04-02T00:57:17.210Z,6.43
2018-04-02T00:58:17.231Z,6.44
2018-04-02T00:59:17.239Z,6.44
2018-04-02T01:00:17.202Z,6.44
2018-04-02T01:01:17.218Z,6.47
2018-04-02T01:02:17.200Z,6.47
2018-04-02T01:03:17.252Z,6.47
2018-04-02T01:04:17.194Z,6.47
2018-04-02T01:05:17.569Z,6.48
2018-04-02T01:06:17.220Z,6.47
2018-04-02T01:07:17.211Z,6.46
2018-04-02T01:08:17.225Z,6.48
2018-04-02T01:09:17.219Z,6.48
2018-04-02T01:10:17.231Z,6.48
2018-04-02T01:11:17.202Z,6.47
2018-04-02T01:12:17.250Z,6.49
2018-04-02T01:13:17.421Z,6.5
2018-04-02T01:14:17.214Z,6.49
2018-04-02T01:15:17.203Z,6.51
2018-04-02T01:16:17.219Z,6.48
2018-04-02T01:17:17.221Z,6.5
2018-04-02T01:18:17.260Z,6.5
2018-04-02T01:19:17.230Z,6.49
2018-04-02T01:20:17.241Z,6.52
2018-04-02T01:21:17.249Z,6.48
2018-04-02T01:22:17.312Z,6.48
2018-04-02T01:23:17.232Z,6.48
2018-04-02T01:24:17.231Z,6.48
2018-04-02T01:25:17.211Z,6.48
2018-04-02T01:26:17.205Z,6.48
2018-04-02T01:27:17.211Z,6.48
2018-04-02T01:28:17.216Z,6.48
2018-04-02T01:29:17.220Z,6.52
2018-04-02T01:30:17.255Z,6.48
2018-04-02T01:31:17.223Z,6.48
2018-04-02T01:32:17.218Z,6.49
2018-04-02T01:33:17.206Z,6.48
2018-04-02T01:34:17.284Z,6.48
2018-04-02T01:35:17.232Z,6.48
2018-04-02T01:36:17.219Z,6.49
2018-04-02T01:37:17.241Z,6.48
2018-04-02T01:38:17.240Z,6.5
2018-04-02T01:39:17.224Z,6.48
2018-04-02T01:40:17.231Z,6.47
2018-04-02T01:41:17.234Z,6.47
2018-04-02T01:42:17.234Z,6.47
2018-04-02T01:43:17.225Z,6.47
2018-04-02T01:44:17.234Z,6.48
2018-04-02T01:45:17.248Z,6.47
2018-04-02T01:46:17.221Z,6.47
2018-04-02T01:47:17.224Z,6.47
2018-04-02T01:48:17.226Z,6.45
2018-04-02T01:49:17.220Z,6.46
2018-04-02T01:50:17.202Z,6.44
2018-04-02T01:51:17.220Z,6.43
2018-04-02T01:52:17.226Z,6.41
2018-04-02T01:53:17.313Z,6.42
2018-04-02T01:54:17.231Z,6.42
2018-04-02T01:55:17.270Z,6.41
2018-04-02T01:56:17.223Z,6.4
2018-04-02T01:57:17.232Z,6.38
2018-04-02T01:58:17.238Z,6.41
2018-04-02T01:59:17.236Z,6.37
2018-04-02T02:00:17.239Z,6.37
2018-04-02T02:01:17.231Z,6.4
2018-04-02T02:02:17.254Z,6.39
2018-04-02T02:03:17.249Z,6.37
2018-04-02T02:04:17.236Z,6.39
2018-04-02T02:05:17.224Z,6.36
2018-04-02T02:06:17.207Z,6.34
2018-04-02T02:07:17.227Z,6.34
2018-04-02T02:08:17.283Z,6.31
2018-04-02T02:09:17.241Z,6.34
2018-04-02T02:10:17.216Z,6.32
2018-04-02T02:11:17.256Z,6.35
2018-04-02T02:12:17.235Z,6.31
2018-04-02T02:13:17.236Z,6.32
2018-04-02T02:14:17.224Z,6.32
2018-04-02T02:15:17.255Z,6.3
2018-04-02T02:16:17.249Z,6.3
2018-04-02T02:17:17.235Z,6.3
2018-04-02T02:18:17.243Z,6.31
2018-04-02T02:19:17.306Z,6.3
2018-04-02T02:20:17.219Z,6.31
2018-04-02T02:21:17.476Z,6.31
2018-04-02T02:22:17.255Z,6.33
2018-04-02T02:23:17.237Z,6.31
2018-04-02T02:24:17.296Z,6.31
2018-04-02T02:25:17.223Z,6.3
2018-04-02T02:26:17.268Z,6.31
2018-04-02T02:27:17.250Z,6.3
2018-04-02T02:28:17.233Z,6.29
2018-04-02T02:29:17.279Z,6.29
2018-04-02T02:30:17.940Z,6.26
2018-04-02T02:31:17.334Z,6.28
2018-04-02T02:32:17.279Z,6.27
2018-04-02T02:33:17.289Z,6.23
2018-04-02T02:34:17.258Z,6.23
2018-04-02T02:35:17.253Z,6.2
2018-04-02T02:36:17.258Z,6.2
2018-04-02T02:37:17.263Z,6.2
2018-04-02T02:38:17.252Z,6.19
2018-04-02T02:39:17.279Z,6.18
2018-04-02T02:40:17.288Z,6.17
2018-04-02T02:41:17.276Z,6.13
2018-04-02T02:42:17.250Z,6.13
2018-04-02T02:43:17.321Z,6.12
2018-04-02T02:44:17.256Z,6.11
2018-04-02T02:45:17.287Z,6.08
2018-04-02T02:46:17.341Z,6.07
2018-04-02T02:47:17.243Z,6.07
2018-04-02T02:48:17.249Z,6.04
2018-04-02T02:49:17.255Z,6.04
2018-04-02T02:50:17.322Z,6.04
2018-04-02T02:51:17.253Z,6.01
2018-04-02T02:52:17.262Z,6
2018-04-02T02:53:17.274Z,5.98
2018-04-02T02:54:17.291Z,5.98
2018-04-02T02:55:17.405Z,5.95
2018-04-02T02:56:17.344Z,5.93
2018-04-02T02:57:17.248Z,5.93
2018-04-02T02:58:17.250Z,5.91
2018-04-02T02:59:17.262Z,5.89
2018-04-02T03:00:17.303Z,5.87
2018-04-02T03:01:17.298Z,5.87
2018-04-02T03:02:17.281Z,5.86
2018-04-02T03:03:17.325Z,5.83
2018-04-02T03:04:17.301Z,5.82
2018-04-02T03:05:17.282Z,5.8
2018-04-02T03:06:17.275Z,5.76
2018-04-02T03:07:17.288Z,5.76
2018-04-02T03:08:17.263Z,5.73
2018-04-02T03:09:17.271Z,5.74
2018-04-02T03:10:17.250Z,5.73
2018-04-02T03:11:17.302Z,5.73
2018-04-02T03:12:17.283Z,5.72
2018-04-02T03:13:17.240Z,5.7
2018-04-02T03:14:17.304Z,5.69
2018-04-02T03:15:17.273Z,5.65
2018-04-02T03:16:17.244Z,5.64
2018-04-02T03:17:17.241Z,5.63
2018-04-02T03:18:17.295Z,5.59
2018-04-02T03:19:17.257Z,5.57
2018-04-02T03:20:17.235Z,5.57
2018-04-02T03:21:17.318Z,5.56
2018-04-02T03:22:17.269Z,5.56
2018-04-02T03:23:17.280Z,5.52
2018-04-02T03:24:17.436Z,5.51
2018-04-02T03:25:17.269Z,5.5
2018-04-02T03:26:17.316Z,5.45
2018-04-02T03:27:17.288Z,5.43
2018-04-02T03:28:17.249Z,5.43
2018-04-02T03:29:17.268Z,5.4
2018-04-02T03:30:17.262Z,5.38
2018-04-02T03:31:17.278Z,5.37
2018-04-02T03:32:17.256Z,5.33
2018-04-02T03:33:17.281Z,5.33
2018-04-02T03:34:17.260Z,5.32
2018-04-02T03:35:17.264Z,5.28
2018-04-02T03:36:17.287Z,5.27
2018-04-02T03:37:17.268Z,5.27
2018-04-02T03:38:17.252Z,5.24
2018-04-02T03:39:17.269Z,5.16
2018-04-02T03:40:17.271Z,5.18
2018-04-02T03:41:17.280Z,5.18
2018-04-02T03:42:17.281Z,5.13
2018-04-02T03:43:17.259Z,5.13
2018-04-02T03:44:17.256Z,5.09
2018-04-02T03:45:17.239Z,5.08
2018-04-02T03:46:17.279Z,5.08
2018-04-02T03:47:17.264Z,5.08
2018-04-02T03:48:17.253Z,5.03
2018-04-02T03:49:17.272Z,5.01
2018-04-02T03:50:17.270Z,5
2018-04-02T03:51:17.250Z,4.99
2018-04-02T03:52:17.309Z,4.97
2018-04-02T03:53:17.273Z,4.96
2018-04-02T03:54:17.309Z,4.95
2018-04-02T03:55:17.275Z,4.94
2018-04-02T03:56:17.261Z,4.92
2018-04-02T03:57:17.345Z,4.9
2018-04-02T03:58:17.277Z,4.89
2018-04-02T03:59:17.327Z,4.87
2018-04-02T04:00:17.270Z,4.88
2018-04-02T04:01:17.268Z,4.84
2018-04-02T04:02:17.278Z,4.83
2018-04-02T04:03:17.283Z,4.85
2018-04-02T04:04:17.294Z,4.84
2018-04-02T04:05:17.264Z,4.85
2018-04-02T04:06:17.286Z,4.84
2018-04-02T04:07:17.294Z,4.84
2018-04-02T04:08:17.269Z,4.83
2018-04-02T04:09:17.268Z,4.86
2018-04-02T04:10:17.295Z,4.82
2018-04-02T04:11:17.276Z,4.83
2018-04-02T04:12:17.630Z,4.81
2018-04-02T04:13:17.280Z,4.77
2018-04-02T04:14:17.276Z,4.77
2018-04-02T04:15:17.271Z,4.75
2018-04-02T04:16:17.262Z,4.75
2018-04-02T04:17:17.299Z,4.71
2018-04-02T04:18:17.284Z,4.7
2018-04-02T04:19:17.298Z,4.7
2018-04-02T04:20:17.280Z,4.69
2018-04-02T04:21:17.250Z,4.65
2018-04-02T04:22:17.261Z,4.64
2018-04-02T04:23:17.285Z,4.64
2018-04-02T04:24:17.312Z,4.61
2018-04-02T04:25:17.256Z,4.61
2018-04-02T04:26:17.267Z,4.63
2018-04-02T04:27:17.294Z,4.61
2018-04-02T04:28:17.418Z,4.63
2018-04-02T04:29:17.273Z,4.62
2018-04-02T04:30:17.269Z,4.6
2018-04-02T04:31:17.271Z,4.58
2018-04-02T04:32:17.278Z,4.58
2018-04-02T04:33:17.266Z,4.54
2018-04-02T04:34:17.276Z,4.54
2018-04-02T04:35:17.383Z,4.53
2018-04-02T04:36:17.299Z,4.53
2018-04-02T04:37:17.261Z,4.53
2018-04-02T04:38:17.284Z,4.52
2018-04-02T04:39:17.302Z,4.48
2018-04-02T04:40:17.632Z,4.5
2018-04-02T04:41:17.284Z,4.48
2018-04-02T04:42:17.255Z,4.5
2018-04-02T04:43:17.255Z,4.5
2018-04-02T04:44:17.642Z,4.5
2018-04-02T04:45:17.302Z,4.47
2018-04-02T04:46:17.268Z,4.49
2018-04-02T04:47:17.280Z,4.46
2018-04-02T04:48:17.267Z,4.46
2018-04-02T04:49:17.359Z,4.46
2018-04-02T04:50:17.274Z,4.46
2018-04-02T04:51:17.266Z,4.49
2018-04-02T04:52:17.276Z,4.47
2018-04-02T04:53:17.344Z,4.48
2018-04-02T04:54:17.272Z,4.49
2018-04-02T04:55:17.616Z,4.5
2018-04-02T04:56:17.267Z,4.49
2018-04-02T04:57:17.266Z,4.42
2018-04-02T04:58:17.294Z,4.41
2018-04-02T04:59:17.367Z,4.37
2018-04-02T05:00:17.285Z,4.4
2018-04-02T05:01:17.284Z,4.4
2018-04-02T05:02:17.292Z,4.37
2018-04-02T05:03:17.278Z,4.38
2018-04-02T05:04:17.303Z,4.4
2018-04-02T05:05:17.301Z,4.42
2018-04-02T05:06:17.287Z,4.43
2018-04-02T05:07:17.265Z,4.43
2018-04-02T05:08:17.291Z,4.43
2018-04-02T05:09:17.361Z,4.46
2018-04-02T05:10:17.312Z,4.43
2018-04-02T05:11:17.282Z,4.43
2018-04-02T05:12:17.327Z,4.43
2018-04-02T05:13:17.314Z,4.46
2018-04-02T05:14:17.281Z,4.47
2018-04-02T05:15:17.315Z,4.47
2018-04-02T05:16:17.319Z,4.48
2018-04-02T05:17:17.273Z,4.47
2018-04-02T05:18:17.301Z,4.41
2018-04-02T05:19:17.273Z,4.39
2018-04-02T05:20:17.317Z,4.38
2018-04-02T05:21:17.285Z,4.35
2018-04-02T05:22:17.291Z,4.35
2018-04-02T05:23:17.318Z,4.34
2018-04-02T05:24:17.289Z,4.35
2018-04-02T05:25:17.308Z,4.37
2018-04-02T05:26:17.284Z,4.36
2018-04-02T05:27:17.279Z,4.36
2018-04-02T05:28:17.266Z,4.38
2018-04-02T05:29:17.281Z,4.36
2018-04-02T05:30:17.457Z,4.36
2018-04-02T05:31:17.306Z,4.36
2018-04-02T05:32:17.295Z,4.36
2018-04-02T05:33:17.301Z,4.35
2018-04-02T05:34:17.282Z,4.31
2018-04-02T05:35:17.307Z,4.31
2018-04-02T05:36:17.286Z,4.32
2018-04-02T05:37:17.304Z,4.35
2018-04-02T05:38:17.294Z,4.33
2018-04-02T05:39:17.308Z,4.31
2018-04-02T05:40:17.310Z,4.28
2018-04-02T05:41:17.540Z,4.3
2018-04-02T05:42:17.295Z,4.31
2018-04-02T05:43:17.289Z,4.31
2018-04-02T05:44:17.311Z,4.36
2018-04-02T05:45:17.804Z,4.35
2018-04-02T05:46:17.309Z,4.34
2018-04-02T05:47:17.297Z,4.35
2018-04-02T05:48:17.305Z,4.34
2018-04-02T05:49:17.291Z,4.3
2018-04-02T05:50:17.345Z,4.34
2018-04-02T05:51:17.334Z,4.33
2018-04-02T05:52:17.300Z,4.36
2018-04-02T05:53:17.329Z,4.36
2018-04-02T05:54:17.311Z,4.35
2018-04-02T05:55:17.313Z,4.36
2018-04-02T05:56:17.353Z,4.35
2018-04-02T05:57:17.326Z,4.35
2018-04-02T05:58:17.482Z,4.34
2018-04-02T05:59:17.360Z,4.35
2018-04-02T06:00:17.454Z,4.36
2018-04-02T06:01:18.018Z,4.38
2018-04-02T06:02:18.199Z,4.41
2018-04-02T06:03:17.529Z,4.42
2018-04-02T06:04:17.476Z,4.42
2018-04-02T06:05:17.405Z,4.43
2018-04-02T06:06:17.515Z,4.43
2018-04-02T06:07:17.411Z,4.43
2018-04-02T06:08:17.395Z,4.46
2018-04-02T06:09:17.364Z,4.48
2018-04-02T06:10:17.358Z,4.52
2018-04-02T06:11:17.398Z,4.54
2018-04-02T06:12:17.366Z,4.55
2018-04-02T06:13:17.332Z,4.58
2018-04-02T06:14:17.342Z,4.59
2018-04-02T06:15:24.452Z,4.6
2018-04-02T06:16:17.368Z,4.65
2018-04-02T06:17:17.343Z,4.65
2018-04-02T06:18:17.415Z,4.64
2018-04-02T06:19:17.431Z,4.71
2018-04-02T06:20:17.362Z,4.72
2018-04-02T06:21:17.344Z,4.76
2018-04-02T06:22:17.377Z,4.78
2018-04-02T06:23:17.381Z,4.79
2018-04-02T06:24:17.419Z,4.83
2018-04-02T06:25:17.394Z,4.84
2018-04-02T06:26:17.393Z,4.88
2018-04-02T06:27:17.392Z,4.87
2018-04-02T06:28:17.400Z,4.9
2018-04-02T06:29:17.384Z,4.91
2018-04-02T06:30:17.390Z,4.95
2018-04-02T06:31:17.332Z,4.97
2018-04-02T06:32:17.381Z,5.01
2018-04-02T06:33:17.298Z,5.03
2018-04-02T06:34:17.316Z,5.07
2018-04-02T06:35:17.347Z,5.09
2018-04-02T06:36:17.322Z,5.1
2018-04-02T06:37:17.317Z,5.15
2018-04-02T06:38:17.338Z,5.16
2018-04-02T06:39:17.322Z,5.22
2018-04-02T06:40:17.392Z,5.26
2018-04-02T06:41:17.318Z,5.27
2018-04-02T06:42:17.328Z,5.28
2018-04-02T06:43:17.334Z,5.33
2018-04-02T06:44:17.333Z,5.36
2018-04-02T06:45:17.302Z,5.37
2018-04-02T06:46:17.298Z,5.4
2018-04-02T06:47:17.315Z,5.42
2018-04-02T06:48:17.310Z,5.46
2018-04-02T06:49:17.343Z,5.51
2018-04-02T06:50:17.315Z,5.53
2018-04-02T06:51:17.395Z,5.54
2018-04-02T06:52:17.314Z,5.57
2018-04-02T06:53:17.303Z,5.59
2018-04-02T06:54:17.378Z,5.6
2018-04-02T06:55:17.357Z,5.64
2018-04-02T06:56:17.317Z,5.68
2018-04-02T06:57:17.321Z,5.7
2018-04-02T06:58:17.323Z,5.71
2018-04-02T06:59:17.403Z,5.72
2018-04-02T07:00:17.310Z,5.76
2018-04-02T07:01:17.311Z,5.78
2018-04-02T07:02:17.317Z,5.82
2018-04-02T07:03:17.426Z,5.88
2018-04-02T07:04:17.350Z,5.89
2018-04-02T07:05:17.341Z,5.92
2018-04-02T07:06:17.316Z,5.96
2018-04-02T07:07:17.308Z,5.98
2018-04-02T07:08:17.318Z,6.01
2018-04-02T07:09:17.321Z,6.03
2018-04-02T07:10:17.310Z,6.04
2018-04-02T07:11:17.345Z,6.08
2018-04-02T07:12:17.325Z,6.09
2018-04-02T07:13:17.318Z,6.1
2018-04-02T07:14:17.332Z,6.11
2018-04-02T07:15:17.364Z,6.12
2018-04-02T07:16:17.677Z,6.15
2018-04-02T07:17:17.338Z,6.19
2018-04-02T07:18:17.354Z,6.23
2018-04-02T07:19:17.312Z,6.25
2018-04-02T07:20:17.321Z,6.29
2018-04-02T07:21:17.357Z,6.34
2018-04-02T07:22:17.327Z,6.35
2018-04-02T07:23:17.346Z,6.39
2018-04-02T07:24:17.379Z,6.39
2018-04-02T07:25:17.326Z,6.41
2018-04-02T07:26:17.343Z,6.45
2018-04-02T07:27:17.326Z,6.43
2018-04-02T07:28:17.333Z,6.48
2018-04-02T07:29:17.331Z,6.48
2018-04-02T07:30:17.341Z,6.51
2018-04-02T07:31:17.403Z,6.52
2018-04-02T07:32:17.312Z,6.53
2018-04-02T07:33:17.366Z,6.53
2018-04-02T07:34:17.564Z,6.53
2018-04-02T07:35:17.334Z,6.56
2018-04-02T07:36:17.393Z,6.56
2018-04-02T07:37:17.579Z,6.57
2018-04-02T07:38:17.343Z,6.6
2018-04-02T07:39:17.333Z,6.62
2018-04-02T07:40:17.304Z,6.6
2018-04-02T07:41:17.329Z,6.6
2018-04-02T07:42:17.350Z,6.65
2018-04-02T07:43:17.327Z,6.66
2018-04-02T07:44:17.748Z,6.66
2018-04-02T07:45:17.333Z,6.66
2018-04-02T07:46:17.331Z,6.65
2018-04-02T07:47:17.335Z,6.66
2018-04-02T07:48:17.340Z,6.69
2018-04-02T07:49:17.349Z,6.71
2018-04-02T07:50:17.370Z,6.72
2018-04-02T07:51:17.342Z,6.74
2018-04-02T07:52:17.374Z,6.77
2018-04-02T07:53:17.324Z,6.79
2018-04-02T07:54:17.335Z,6.84
2018-04-02T07:55:17.348Z,6.85
2018-04-02T07:56:17.397Z,6.87
2018-04-02T07:57:17.350Z,6.91
2018-04-02T07:58:17.322Z,6.95
2018-04-02T07:59:17.328Z,6.95
2018-04-02T08:00:17.335Z,6.97
2018-04-02T08:01:17.332Z,6.98
2018-04-02T08:02:17.349Z,6.98
2018-04-02T08:03:17.312Z,7.01
2018-04-02T08:04:17.723Z,7.04
2018-04-02T08:05:17.421Z,7.07
2018-04-02T08:06:17.368Z,7.09
2018-04-02T08:07:17.332Z,7.12
2018-04-02T08:08:17.335Z,7.12
2018-04-02T08:09:17.353Z,7.14
2018-04-02T08:10:17.331Z,7.15
2018-04-02T08:11:17.336Z,7.16
2018-04-02T08:12:17.336Z,7.17
2018-04-02T08:13:17.336Z,7.21
2018-04-02T08:14:17.328Z,7.23
2018-04-02T08:15:17.393Z,7.27
2018-04-02T08:16:17.353Z,7.28
2018-04-02T08:17:17.366Z,7.3
2018-04-02T08:18:17.332Z,7.33
2018-04-02T08:19:17.335Z,7.34
2018-04-02T08:20:17.358Z,7.4
2018-04-02T08:21:17.830Z,7.41
2018-04-02T08:22:17.352Z,7.42
2018-04-02T08:23:17.356Z,7.46
2018-04-02T08:24:17.342Z,7.47
2018-04-02T08:25:17.662Z,7.52
2018-04-02T08:26:17.384Z,7.53
2018-04-02T08:27:17.385Z,7.55
2018-04-02T08:28:17.647Z,7.57
2018-04-02T08:29:17.351Z,7.62
2018-04-02T08:30:17.357Z,7.66
2018-04-02T08:31:17.338Z,7.67
2018-04-02T08:32:17.332Z,7.71
2018-04-02T08:33:17.340Z,7.73
2018-04-02T08:34:17.343Z,7.74
2018-04-02T08:35:17.344Z,7.78
2018-04-02T08:36:17.425Z,7.79
2018-04-02T08:37:17.390Z,7.83
2018-04-02T08:38:17.326Z,7.83
2018-04-02T08:39:17.719Z,7.87
2018-04-02T08:40:17.349Z,7.92
2018-04-02T08:41:17.371Z,7.96
2018-04-02T08:42:17.362Z,7.97
2018-04-02T08:43:17.324Z,8.02
2018-04-02T08:44:17.797Z,8.05
2018-04-02T08:45:17.330Z,8.07
2018-04-02T08:46:17.389Z,8.07
2018-04-02T08:47:17.347Z,8.11
2018-04-02T08:48:17.342Z,8.15
2018-04-02T08:49:17.371Z,8.24
2018-04-02T08:50:17.345Z,8.24
2018-04-02T08:51:17.415Z,8.34
2018-04-02T08:52:17.324Z,8.37
2018-04-02T08:53:17.334Z,8.41
2018-04-02T08:54:17.371Z,8.45
2018-04-02T08:55:17.362Z,8.5
2018-04-02T08:56:17.368Z,8.52
2018-04-02T08:57:17.608Z,8.58
2018-04-02T08:58:17.393Z,8.6
2018-04-02T08:59:17.388Z,8.65
2018-04-02T09:00:17.466Z,8.71
2018-04-02T09:01:17.374Z,8.73
2018-04-02T09:02:17.381Z,8.82
2018-04-02T09:03:17.402Z,8.86
2018-04-02T09:04:17.453Z,8.95
2018-04-02T09:05:17.442Z,9
2018-04-02T09:06:17.394Z,9.07
2018-04-02T09:07:17.405Z,9.11
2018-04-02T09:08:17.384Z,9.13
2018-04-02T09:09:17.350Z,9.17
2018-04-02T09:10:17.375Z,9.2
2018-04-02T09:11:17.399Z,9.27
2018-04-02T09:12:17.410Z,9.39
2018-04-02T09:13:17.858Z,9.42
2018-04-02T09:14:17.429Z,9.43
2018-04-02T09:15:17.373Z,9.45
2018-04-02T09:16:17.375Z,9.52
2018-04-02T09:17:17.415Z,9.57
2018-04-02T09:18:17.388Z,9.61
2018-04-02T09:19:17.388Z,9.63
2018-04-02T09:20:17.708Z,9.67
2018-04-02T09:21:17.378Z,9.71
2018-04-02T09:22:17.375Z,9.76
2018-04-02T09:23:17.412Z,9.8
2018-04-02T09:24:17.383Z,9.86
2018-04-02T09:25:17.393Z,9.88
2018-04-02T09:26:18.821Z,9.9
2018-04-02T09:27:17.355Z,9.97
2018-04-02T09:28:17.369Z,9.99
2018-04-02T09:29:17.400Z,10.07
2018-04-02T09:30:17.341Z,10.1
2018-04-02T09:31:17.399Z,10.14
2018-04-02T09:32:17.380Z,10.14
2018-04-02T09:33:17.396Z,10.16
2018-04-02T09:34:17.349Z,10.2
2018-04-02T09:35:17.352Z,10.22
2018-04-02T09:36:17.361Z,10.3
2018-04-02T09:37:17.441Z,10.3
2018-04-02T09:38:17.415Z,10.28
2018-04-02T09:39:17.390Z,10.3
2018-04-02T09:40:17.404Z,10.37
2018-04-02T09:41:17.396Z,10.43
2018-04-02T09:42:17.402Z,10.46
2018-04-02T09:43:17.374Z,10.53
2018-04-02T09:44:17.385Z,10.59
2018-04-02T09:45:17.390Z,10.63
2018-04-02T09:46:17.441Z,10.65
2018-04-02T09:47:17.419Z,10.72
2018-04-02T09:48:17.403Z,10.77
2018-04-02T09:49:17.480Z,10.83
2018-04-02T09:50:17.358Z,10.84
2018-04-02T09:51:17.409Z,11.01
2018-04-02T09:52:17.367Z,11.09
2018-04-02T09:53:17.439Z,11.16
2018-04-02T09:54:17.859Z,11.2
2018-04-02T09:55:17.390Z,11.22
2018-04-02T09:56:17.411Z,11.22
2018-04-02T09:57:17.445Z,11.24
2018-04-02T09:58:17.391Z,11.27
2018-04-02T09:59:17.927Z,11.24
2018-04-02T10:00:17.435Z,11.34
2018-04-02T10:01:17.391Z,11.34
2018-04-02T10:02:17.406Z,11.35
2018-04-02T10:03:17.411Z,11.41
2018-04-02T10:04:17.436Z,11.41
2018-04-02T10:05:17.478Z,11.44
2018-04-02T10:06:17.445Z,11.57
2018-04-02T10:07:17.442Z,11.62
2018-04-02T10:08:17.421Z,11.58
2018-04-02T10:09:18.449Z,11.6
2018-04-02T10:10:19.511Z,11.71
2018-04-02T10:11:18.789Z,11.77
2018-04-02T10:12:17.515Z,11.78
2018-04-02T10:13:17.378Z,11.77
2018-04-02T10:14:17.395Z,11.78
2018-04-02T10:15:17.379Z,11.79
2018-04-02T10:16:17.370Z,11.82
2018-04-02T10:17:17.385Z,11.87
2018-04-02T10:18:17.357Z,11.91
2018-04-02T10:19:17.382Z,11.98
2018-04-02T10:20:17.389Z,12.01
2018-04-02T10:21:17.398Z,12.02
2018-04-02T10:22:17.354Z,12.05
2018-04-02T10:23:17.366Z,12.07
2018-04-02T10:24:17.418Z,12.18
2018-04-02T10:25:17.361Z,12.23
2018-04-02T10:26:17.805Z,12.25
2018-04-02T10:27:17.362Z,12.3
2018-04-02T10:28:17.382Z,12.31
2018-04-02T10:29:17.863Z,12.32
2018-04-02T10:30:17.423Z,12.27
2018-04-02T10:31:17.469Z,12.32
2018-04-02T10:32:17.406Z,12.41
2018-04-02T10:33:17.392Z,12.48
2018-04-02T10:34:17.357Z,12.48
2018-04-02T10:35:17.401Z,12.52
2018-04-02T10:36:17.410Z,12.61
2018-04-02T10:37:17.772Z,12.6
2018-04-02T10:38:17.424Z,12.56
2018-04-02T10:39:17.379Z,12.6
2018-04-02T10:40:17.388Z,12.57
2018-04-02T10:41:17.373Z,12.56
2018-04-02T10:42:17.397Z,12.56
2018-04-02T10:43:18.090Z,12.53
2018-04-02T10:44:17.412Z,12.47
2018-04-02T10:45:17.415Z,12.45
2018-04-02T10:46:17.391Z,12.5
2018-04-02T10:47:17.388Z,12.51
2018-04-02T10:48:17.433Z,12.54
2018-04-02T10:49:17.397Z,12.54
2018-04-02T10:50:17.374Z,12.54
2018-04-02T10:51:17.373Z,12.53
2018-04-02T10:52:17.392Z,12.51
2018-04-02T10:53:17.401Z,12.54
2018-04-02T10:54:17.388Z,12.6
2018-04-02T10:55:17.399Z,12.62
2018-04-02T10:56:17.372Z,12.64
2018-04-02T10:57:17.403Z,12.73
2018-04-02T10:58:17.402Z,12.79
2018-04-02T10:59:17.399Z,12.9
2018-04-02T11:00:17.435Z,12.97
2018-04-02T11:01:17.388Z,13.04
2018-04-02T11:02:17.367Z,13.05
2018-04-02T11:03:17.707Z,13.15
2018-04-02T11:04:17.389Z,13.18
2018-04-02T11:05:17.382Z,13.18
2018-04-02T11:06:17.976Z,13.27
2018-04-02T11:07:17.395Z,13.25
2018-04-02T11:08:17.399Z,13.24
2018-04-02T11:09:17.420Z,13.26
2018-04-02T11:10:17.416Z,13.26
2018-04-02T11:11:17.397Z,13.37
2018-04-02T11:12:17.381Z,13.36
2018-04-02T11:13:17.395Z,13.31
2018-04-02T11:14:17.534Z,13.31
2018-04-02T11:15:17.393Z,13.37
2018-04-02T11:16:17.408Z,13.45
2018-04-02T11:17:17.374Z,13.43
2018-04-02T11:18:17.404Z,13.48
2018-04-02T11:19:17.381Z,13.47
2018-04-02T11:20:17.394Z,13.47
2018-04-02T11:21:17.432Z,13.45
2018-04-02T11:22:17.400Z,13.43
2018-04-02T11:23:17.450Z,13.39
2018-04-02T11:24:17.379Z,13.35
2018-04-02T11:25:17.391Z,13.37
2018-04-02T11:26:17.386Z,13.33
2018-04-02T11:27:17.456Z,13.28
2018-04-02T11:28:17.380Z,13.3
2018-04-02T11:29:17.378Z,13.29
2018-04-02T11:30:17.408Z,13.32
2018-04-02T11:31:17.420Z,13.3
2018-04-02T11:32:17.389Z,13.33
2018-04-02T11:33:17.396Z,13.37
2018-04-02T11:34:17.469Z,13.39
2018-04-02T11:35:17.410Z,13.45
2018-04-02T11:36:17.413Z,13.52
2018-04-02T11:37:17.465Z,13.53
2018-04-02T11:38:17.394Z,13.57
2018-04-02T11:39:17.402Z,13.61
2018-04-02T11:40:17.410Z,13.64
2018-04-02T11:41:17.428Z,13.65
2018-04-02T11:42:17.412Z,13.69
2018-04-02T11:43:17.395Z,13.73
2018-04-02T11:44:17.408Z,13.77
2018-04-02T11:45:17.484Z,13.83
2018-04-02T11:46:17.382Z,13.85
2018-04-02T11:47:17.444Z,13.86
2018-04-02T11:48:17.414Z,13.92
2018-04-02T11:49:17.447Z,14
2018-04-02T11:50:17.444Z,14.07
2018-04-02T11:51:17.425Z,14.13
2018-04-02T11:52:17.418Z,14.23
2018-04-02T11:53:17.407Z,14.28
2018-04-02T11:54:17.420Z,14.29
2018-04-02T11:55:17.414Z,14.39
2018-04-02T11:56:17.403Z,14.47
2018-04-02T11:57:18.082Z,14.48
2018-04-02T11:58:17.431Z,14.52
2018-04-02T11:59:17.422Z,14.59
2018-04-02T12:00:17.408Z,14.58
2018-04-02T12:01:17.454Z,14.63
2018-04-02T12:02:17.466Z,14.68
2018-04-02T12:03:17.418Z,14.72
2018-04-02T12:04:17.427Z,14.8
2018-04-02T12:05:17.456Z,14.82
2018-04-02T12:06:17.431Z,14.81
2018-04-02T12:07:17.749Z,14.76
2018-04-02T12:08:17.446Z,14.71
2018-04-02T12:09:17.754Z,14.68
2018-04-02T12:10:17.419Z,14.59
2018-04-02T12:11:17.421Z,14.54
2018-04-02T12:12:17.441Z,14.49
2018-04-02T12:13:17.428Z,14.44
2018-04-02T12:14:17.433Z,14.4
2018-04-02T12:15:17.450Z,14.39
2018-04-02T12:16:17.501Z,14.35
2018-04-02T12:17:17.451Z,14.32
2018-04-02T12:18:17.433Z,14.31
2018-04-02T12:19:17.432Z,14.31
2018-04-02T12:20:17.626Z,14.32
2018-04-02T12:21:17.436Z,14.32
2018-04-02T12:22:17.460Z,14.36
2018-04-02T12:23:17.440Z,14.33
2018-04-02T12:24:17.428Z,14.37
2018-04-02T12:25:17.444Z,14.36
2018-04-02T12:26:17.444Z,14.4
2018-04-02T12:27:17.434Z,14.45
2018-04-02T12:28:17.472Z,14.44
2018-04-02T12:29:17.438Z,14.48
2018-04-02T12:30:17.454Z,14.52
2018-04-02T12:31:17.451Z,14.53
2018-04-02T12:32:17.711Z,14.59
2018-04-02T12:33:17.460Z,14.66
2018-04-02T12:34:17.440Z,14.85
2018-04-02T12:35:17.434Z,14.97
2018-04-02T12:36:17.453Z,14.99
2018-04-02T12:37:17.438Z,15.03
2018-04-02T12:38:17.438Z,15.05
2018-04-02T12:39:17.428Z,15.08
2018-04-02T12:40:17.471Z,15.08
2018-04-02T12:41:17.442Z,15.14
2018-04-02T12:42:17.421Z,15.24
2018-04-02T12:43:17.817Z,15.24
2018-04-02T12:44:19.178Z,15.36
2018-04-02T12:45:17.528Z,15.42
2018-04-02T12:46:17.483Z,15.44
2018-04-02T12:47:17.558Z,15.44
2018-04-02T12:48:17.493Z,15.47
2018-04-02T12:49:17.444Z,15.54
2018-04-02T12:50:17.466Z,15.57
2018-04-02T12:51:17.449Z,15.57
2018-04-02T12:52:17.449Z,15.61
2018-04-02T12:53:17.455Z,15.58
2018-04-02T12:54:17.461Z,15.62
2018-04-02T12:55:17.437Z,15.61
2018-04-02T12:56:17.450Z,15.63
2018-04-02T12:57:17.450Z,15.65
2018-04-02T12:58:17.452Z,15.69
2018-04-02T12:59:17.485Z,15.68
2018-04-02T13:00:17.469Z,15.7
2018-04-02T13:01:17.471Z,15.73
2018-04-02T13:02:17.477Z,15.81
2018-04-02T13:03:17.447Z,15.83
2018-04-02T13:04:17.517Z,15.82
2018-04-02T13:05:17.464Z,15.87
2018-04-02T13:06:17.478Z,15.87
2018-04-02T13:07:17.502Z,15.88
2018-04-02T13:08:17.481Z,15.98
2018-04-02T13:09:17.484Z,16.02
2018-04-02T13:10:17.493Z,15.99
2018-04-02T13:11:17.487Z,16
2018-04-02T13:12:17.473Z,16.04
2018-04-02T13:13:17.477Z,16.06
2018-04-02T13:14:17.489Z,16.02